Terminal Aerodrome Forecast
Issued by NWS

Home | Current Version | Previous Version | Text Only | Print | Product List | Glossary On
Versions: 1 2 3 4 5 6 7 8 9 10 11 12 13 14 15 16 17 18 19
000
FTUS43 KABR 311700
TAFMBG
TAF
KMBG 311725Z 3118/0118 15012KT P6SM SCT250
     FM312000 15020G28KT P6SM SCT250
     FM010300 15018KT P6SM SCT200
     FM011500 15020G30KT P6SM SCT200=

USA.gov is the U.S. government's official web portal to all federal, state and local government web resources and services.